sensor_id;sensor_type;location;lat;lon;timestamp;pressure;altitude;pressure_sealevel;temperature;humidity
16806;BME280;8520;50.102;20.010;2022-08-07T00:00:45;98964.94;;;19.64;80.41
16806;BME280;8520;50.102;20.010;2022-08-07T00:03:36;98967.50;;;19.62;80.72
16806;BME280;8520;50.102;20.010;2022-08-07T00:06:33;98970.81;;;19.55;81.23
16806;BME280;8520;50.102;20.010;2022-08-07T00:09:22;98969.91;;;19.36;81.83
16806;BME280;8520;50.102;20.010;2022-08-07T00:12:21;98960.56;;;19.27;82.35
16806;BME280;8520;50.102;20.010;2022-08-07T00:15:11;98954.09;;;19.49;81.76
16806;BME280;8520;50.102;20.010;2022-08-07T00:18:02;98959.94;;;19.57;81.05
16806;BME280;8520;50.102;20.010;2022-08-07T00:20:52;98964.31;;;19.41;81.35
16806;BME280;8520;50.102;20.010;2022-08-07T00:23:43;98968.56;;;19.07;82.36
16806;BME280;8520;50.102;20.010;2022-08-07T00:26:33;98964.78;;;18.98;82.86
16806;BME280;8520;50.102;20.010;2022-08-07T00:29:42;98956.97;;;18.80;84.90
16806;BME280;8520;50.102;20.010;2022-08-07T00:32:30;98963.72;;;19.07;83.78
16806;BME280;8520;50.102;20.010;2022-08-07T00:35:22;98968.94;;;19.27;82.94
16806;BME280;8520;50.102;20.010;2022-08-07T00:38:10;98971.66;;;19.44;82.30
16806;BME280;8520;50.102;20.010;2022-08-07T00:41:02;98966.78;;;19.56;81.99
16806;BME280;8520;50.102;20.010;2022-08-07T00:43:56;98969.53;;;19.62;81.74
16806;BME280;8520;50.102;20.010;2022-08-07T00:46:50;98975.59;;;19.66;81.66
16806;BME280;8520;50.102;20.010;2022-08-07T00:49:38;98982.69;;;19.72;81.49
16806;BME280;8520;50.102;20.010;2022-08-07T00:52:48;98987.81;;;19.68;80.76
16806;BME280;8520;50.102;20.010;2022-08-07T00:55:39;98982.69;;;19.72;80.72
16806;BME280;8520;50.102;20.010;2022-08-07T00:58:47;98985.44;;;19.78;80.58
16806;BME280;8520;50.102;20.010;2022-08-07T01:01:36;98983.88;;;19.82;80.88
16806;BME280;8520;50.102;20.010;2022-08-07T01:04:31;98983.34;;;19.84;80.70
16806;BME280;8520;50.102;20.010;2022-08-07T01:07:29;98976.72;;;19.87;80.71
16806;BME280;8520;50.102;20.010;2022-08-07T01:10:18;98979.31;;;19.85;80.43
16806;BME280;8520;50.102;20.010;2022-08-07T01:13:07;98969.13;;;19.82;80.66
16806;BME280;8520;50.102;20.010;2022-08-07T01:16:04;98973.97;;;19.81;80.64
16806;BME280;8520;50.102;20.010;2022-08-07T01:18:53;98976.31;;;19.77;80.74
16806;BME280;8520;50.102;20.010;2022-08-07T01:21:45;98976.09;;;19.70;80.82
16806;BME280;8520;50.102;20.010;2022-08-07T01:24:34;98977.41;;;19.63;81.14
16806;BME280;8520;50.102;20.010;2022-08-07T01:27:24;98980.16;;;19.69;80.82
16806;BME280;8520;50.102;20.010;2022-08-07T01:30:20;98984.25;;;19.68;80.62
16806;BME280;8520;50.102;20.010;2022-08-07T01:33:15;98981.78;;;19.58;80.79
16806;BME280;8520;50.102;20.010;2022-08-07T01:36:06;98975.66;;;19.60;80.83
16806;BME280;8520;50.102;20.010;2022-08-07T01:39:00;98966.00;;;19.55;80.65
16806;BME280;8520;50.102;20.010;2022-08-07T01:41:57;98970.59;;;19.58;80.70
16806;BME280;8520;50.102;20.010;2022-08-07T01:45:06;98970.81;;;19.60;80.91
16806;BME280;8520;50.102;20.010;2022-08-07T01:48:14;98967.50;;;19.62;81.17
16806;BME280;8520;50.102;20.010;2022-08-07T01:51:18;98967.78;;;19.53;81.73
16806;BME280;8520;50.102;20.010;2022-08-07T01:54:31;98971.88;;;19.52;82.38
16806;BME280;8520;50.102;20.010;2022-08-07T01:57:32;98973.91;;;19.57;82.16
16806;BME280;8520;50.102;20.010;2022-08-07T02:00:45;98970.06;;;19.54;82.14
16806;BME280;8520;50.102;20.010;2022-08-07T02:03:48;98968.56;;;19.59;82.35
16806;BME280;8520;50.102;20.010;2022-08-07T02:06:40;98971.59;;;19.91;81.30
16806;BME280;8520;50.102;20.010;2022-08-07T02:09:33;98970.28;;;19.62;81.86
16806;BME280;8520;50.102;20.010;2022-08-07T02:12:44;98970.81;;;19.55;82.65
16806;BME280;8520;50.102;20.010;2022-08-07T02:15:42;98962.19;;;19.53;82.70
16806;BME280;8520;50.102;20.010;2022-08-07T02:18:35;98967.88;;;19.42;83.05
16806;BME280;8520;50.102;20.010;2022-08-07T02:21:34;98964.09;;;19.33;83.26
16806;BME280;8520;50.102;20.010;2022-08-07T02:24:46;98967.34;;;19.43;83.13
16806;BME280;8520;50.102;20.010;2022-08-07T02:27:36;98961.31;;;19.28;83.42
16806;BME280;8520;50.102;20.010;2022-08-07T02:30:28;98970.69;;;19.36;83.09
16806;BME280;8520;50.102;20.010;2022-08-07T02:33:18;98974.22;;;19.37;83.37
16806;BME280;8520;50.102;20.010;2022-08-07T02:36:08;98964.56;;;19.38;83.39
16806;BME280;8520;50.102;20.010;2022-08-07T02:39:19;98974.44;;;19.44;83.39
16806;BME280;8520;50.102;20.010;2022-08-07T02:42:34;98973.97;;;19.40;83.70
16806;BME280;8520;50.102;20.010;2022-08-07T02:45:25;98970.72;;;19.30;83.82
16806;BME280;8520;50.102;20.010;2022-08-07T02:48:34;98973.44;;;19.42;83.82
16806;BME280;8520;50.102;20.010;2022-08-07T02:51:26;98971.69;;;19.39;83.90
16806;BME280;8520;50.102;20.010;2022-08-07T02:54:39;98975.78;;;19.32;84.18
16806;BME280;8520;50.102;20.010;2022-08-07T02:57:29;98974.59;;;19.22;84.81
16806;BME280;8520;50.102;20.010;2022-08-07T03:00:23;98975.06;;;19.26;84.28
16806;BME280;8520;50.102;20.010;2022-08-07T03:03:18;98975.59;;;19.19;84.20
16806;BME280;8520;50.102;20.010;2022-08-07T03:06:10;98974.59;;;19.22;84.27
16806;BME280;8520;50.102;20.010;2022-08-07T03:09:12;98975.56;;;19.30;83.84
16806;BME280;8520;50.102;20.010;2022-08-07T03:12:21;98978.34;;;19.30;83.95
16806;BME280;8520;50.102;20.010;2022-08-07T03:15:26;98974.50;;;19.33;83.76
16806;BME280;8520;50.102;20.010;2022-08-07T03:18:35;98979.81;;;19.37;83.57
16806;BME280;8520;50.102;20.010;2022-08-07T03:21:26;98970.47;;;19.28;83.66
16806;BME280;8520;50.102;20.010;2022-08-07T03:24:19;98979.88;;;19.31;83.55
16806;BME280;8520;50.102;20.010;2022-08-07T03:27:16;98975.78;;;19.32;83.13
16806;BME280;8520;50.102;20.010;2022-08-07T03:30:20;98990.53;;;19.27;82.93
16806;BME280;8520;50.102;20.010;2022-08-07T03:33:13;98973.09;;;19.10;83.21
16806;BME280;8520;50.102;20.010;2022-08-07T03:36:08;98981.28;;;18.96;83.67
16806;BME280;8520;50.102;20.010;2022-08-07T03:39:00;98983.50;;;19.15;83.10
16806;BME280;8520;50.102;20.010;2022-08-07T03:41:52;98983.00;;;19.11;83.35
16806;BME280;8520;50.102;20.010;2022-08-07T03:44:42;98989.13;;;19.03;83.55
16806;BME280;8520;50.102;20.010;2022-08-07T03:47:40;98986.06;;;19.13;83.37
16806;BME280;8520;50.102;20.010;2022-08-07T03:50:39;98988.34;;;19.09;83.59
16806;BME280;8520;50.102;20.010;2022-08-07T03:53:44;98995.78;;;18.95;84.02
16806;BME280;8520;50.102;20.010;2022-08-07T03:56:54;98995.59;;;18.70;85.42
16806;BME280;8520;50.102;20.010;2022-08-07T03:59:54;98998.66;;;18.67;85.60
16806;BME280;8520;50.102;20.010;2022-08-07T04:02:50;98997.34;;;18.73;85.33
16806;BME280;8520;50.102;20.010;2022-08-07T04:05:49;98995.09;;;18.50;86.42
16806;BME280;8520;50.102;20.010;2022-08-07T04:08:45;99001.22;;;17.98;88.13
16806;BME280;8520;50.102;20.010;2022-08-07T04:11:35;99011.09;;;18.27;87.94
16806;BME280;8520;50.102;20.010;2022-08-07T04:14:45;99001.97;;;18.43;86.99
16806;BME280;8520;50.102;20.010;2022-08-07T04:17:36;99006.00;;;18.53;86.58
16806;BME280;8520;50.102;20.010;2022-08-07T04:20:46;99002.69;;;18.55;86.45
16806;BME280;8520;50.102;20.010;2022-08-07T04:23:43;99001.16;;;18.70;85.47
16806;BME280;8520;50.102;20.010;2022-08-07T04:26:52;98996.03;;;18.91;84.75
16806;BME280;8520;50.102;20.010;2022-08-07T04:29:42;99008.22;;;18.94;84.89
16806;BME280;8520;50.102;20.010;2022-08-07T04:32:57;98995.03;;;18.94;84.56
16806;BME280;8520;50.102;20.010;2022-08-07T04:35:49;98999.09;;;18.88;84.89
16806;BME280;8520;50.102;20.010;2022-08-07T04:38:48;99008.22;;;18.94;85.00
16806;BME280;8520;50.102;20.010;2022-08-07T04:41:39;99002.09;;;19.01;84.80
16806;BME280;8520;50.102;20.010;2022-08-07T04:44:30;99009.41;;;19.15;83.90
16806;BME280;8520;50.102;20.010;2022-08-07T04:47:24;99013.69;;;19.22;83.72
16806;BME280;8520;50.102;20.010;2022-08-07T04:50:38;99005.00;;;19.31;83.24
16806;BME280;8520;50.102;20.010;2022-08-07T04:53:43;99008.13;;;19.16;83.48
16806;BME280;8520;50.102;20.010;2022-08-07T04:57:00;99011.84;;;19.36;83.01
16806;BME280;8520;50.102;20.010;2022-08-07T05:00:13;99025.34;;;19.26;83.62
16806;BME280;8520;50.102;20.010;2022-08-07T05:03:23;99024.56;;;19.31;83.17
16806;BME280;8520;50.102;20.010;2022-08-07T05:06:36;99032.16;;;19.36;83.16
16806;BME280;8520;50.102;20.010;2022-08-07T05:09:36;99039.00;;;19.41;83.14
16806;BME280;8520;50.102;20.010;2022-08-07T05:12:39;99037.44;;;19.45;82.89
16806;BME280;8520;50.102;20.010;2022-08-07T05:15:41;99036.97;;;19.41;82.66
16806;BME280;8520;50.102;20.010;2022-08-07T05:18:34;99036.22;;;19.41;82.79
16806;BME280;8520;50.102;20.010;2022-08-07T05:21:26;99040.75;;;19.49;82.66
16806;BME280;8520;50.102;20.010;2022-08-07T05:24:36;99042.50;;;19.52;82.32
16806;BME280;8520;50.102;20.010;2022-08-07T05:27:28;99037.16;;;19.54;82.26
16806;BME280;8520;50.102;20.010;2022-08-07T05:30:41;99044.06;;;19.48;82.88
16806;BME280;8520;50.102;20.010;2022-08-07T05:33:35;99043.03;;;19.51;82.37
16806;BME280;8520;50.102;20.010;2022-08-07T05:36:27;99038.97;;;19.46;82.67
16806;BME280;8520;50.102;20.010;2022-08-07T05:39:21;99045.28;;;19.52;82.76
16806;BME280;8520;50.102;20.010;2022-08-07T05:42:31;99049.16;;;19.44;82.75
16806;BME280;8520;50.102;20.010;2022-08-07T05:45:26;99051.38;;;19.56;82.03
16806;BME280;8520;50.102;20.010;2022-08-07T05:48:37;99052.66;;;19.61;81.91
16806;BME280;8520;50.102;20.010;2022-08-07T05:51:47;99050.59;;;19.67;81.60
16806;BME280;8520;50.102;20.010;2022-08-07T05:54:39;99055.13;;;19.70;81.66
16806;BME280;8520;50.102;20.010;2022-08-07T05:57:42;99057.69;;;19.68;81.70
16806;BME280;8520;50.102;20.010;2022-08-07T06:00:36;99052.34;;;19.70;82.16
16806;BME280;8520;50.102;20.010;2022-08-07T06:03:29;99048.56;;;20.03;80.89
16806;BME280;8520;50.102;20.010;2022-08-07T06:06:39;99057.91;;;19.76;81.19
16806;BME280;8520;50.102;20.010;2022-08-07T06:09:35;99053.03;;;19.82;80.83
16806;BME280;8520;50.102;20.010;2022-08-07T06:12:43;99055.56;;;19.85;80.58
16806;BME280;8520;50.102;20.010;2022-08-07T06:15:34;99054.53;;;19.83;80.58
16806;BME280;8520;50.102;20.010;2022-08-07T06:18:31;99050.00;;;19.80;79.63
16806;BME280;8520;50.102;20.010;2022-08-07T06:21:21;99055.03;;;19.87;79.75
16806;BME280;8520;50.102;20.010;2022-08-07T06:24:32;99057.38;;;19.77;80.19
16806;BME280;8520;50.102;20.010;2022-08-07T06:27:42;99061.53;;;20.01;79.38
16806;BME280;8520;50.102;20.010;2022-08-07T06:30:50;99057.53;;;19.96;79.61
16806;BME280;8520;50.102;20.010;2022-08-07T06:33:41;99062.88;;;19.94;79.73
16806;BME280;8520;50.102;20.010;2022-08-07T06:36:33;99064.72;;;19.86;80.45
16806;BME280;8520;50.102;20.010;2022-08-07T06:39:24;99059.63;;;19.84;80.56
16806;BME280;8520;50.102;20.010;2022-08-07T06:42:36;99060.66;;;19.81;81.47
16806;BME280;8520;50.102;20.010;2022-08-07T06:45:30;99068.16;;;20.03;80.76
16806;BME280;8520;50.102;20.010;2022-08-07T06:48:23;99063.22;;;20.15;80.38
16806;BME280;8520;50.102;20.010;2022-08-07T06:51:16;99073.38;;;20.18;80.32
16806;BME280;8520;50.102;20.010;2022-08-07T06:54:24;99072.38;;;20.15;80.32
16806;BME280;8520;50.102;20.010;2022-08-07T06:57:35;99075.72;;;20.14;79.38
16806;BME280;8520;50.102;20.010;2022-08-07T07:00:43;99072.28;;;20.27;78.09
16806;BME280;8520;50.102;20.010;2022-08-07T07:03:32;99075.59;;;20.31;78.01
16806;BME280;8520;50.102;20.010;2022-08-07T07:06:38;99075.59;;;20.31;77.07
16806;BME280;8520;50.102;20.010;2022-08-07T07:09:48;99078.63;;;20.33;76.42
16806;BME280;8520;50.102;20.010;2022-08-07T07:12:42;99072.09;;;20.55;75.35
16806;BME280;8520;50.102;20.010;2022-08-07T07:15:41;99062.06;;;20.65;74.90
16806;BME280;8520;50.102;20.010;2022-08-07T07:18:42;99064.34;;;20.66;74.65
16806;BME280;8520;50.102;20.010;2022-08-07T07:21:37;99061.56;;;20.91;74.03
16806;BME280;8520;50.102;20.010;2022-08-07T07:24:48;99063.38;;;20.88;73.88
16806;BME280;8520;50.102;20.010;2022-08-07T07:27:55;99064.63;;;21.12;71.93
16806;BME280;8520;50.102;20.010;2022-08-07T07:30:56;99066.22;;;21.07;71.63
16806;BME280;8520;50.102;20.010;2022-08-07T07:33:50;99067.53;;;21.25;70.54
16806;BME280;8520;50.102;20.010;2022-08-07T07:36:44;99067.28;;;21.28;70.03
16806;BME280;8520;50.102;20.010;2022-08-07T07:39:41;99062.31;;;21.40;69.47
16806;BME280;8520;50.102;20.010;2022-08-07T07:42:41;99072.28;;;21.36;69.63
16806;BME280;8520;50.102;20.010;2022-08-07T07:45:42;99067.00;;;21.51;68.68
16806;BME280;8520;50.102;20.010;2022-08-07T07:48:52;99067.91;;;21.78;67.73
16806;BME280;8520;50.102;20.010;2022-08-07T07:51:56;99076.69;;;21.88;67.63
16806;BME280;8520;50.102;20.010;2022-08-07T07:54:46;99072.22;;;21.98;66.31
16806;BME280;8520;50.102;20.010;2022-08-07T07:57:38;99070.56;;;22.08;65.28
16806;BME280;8520;50.102;20.010;2022-08-07T08:00:41;99075.47;;;22.02;65.50
16806;BME280;8520;50.102;20.010;2022-08-07T08:03:40;99076.94;;;22.08;65.91
16806;BME280;8520;50.102;20.010;2022-08-07T08:06:50;99077.16;;;22.10;65.59
16806;BME280;8520;50.102;20.010;2022-08-07T08:09:41;99074.78;;;22.47;63.39
16806;BME280;8520;50.102;20.010;2022-08-07T08:12:50;99076.00;;;22.51;62.61
16806;BME280;8520;50.102;20.010;2022-08-07T08:15:48;99077.63;;;22.60;63.88
16806;BME280;8520;50.102;20.010;2022-08-07T08:18:47;99075.38;;;22.71;62.08
16806;BME280;8520;50.102;20.010;2022-08-07T08:21:39;99068.94;;;23.03;61.09
16806;BME280;8520;50.102;20.010;2022-08-07T08:25:02;99069.94;;;23.32;61.32
16806;BME280;8520;50.102;20.010;2022-08-07T08:28:28;99069.56;;;23.62;60.22
16806;BME280;8520;50.102;20.010;2022-08-07T08:31:29;99065.66;;;23.78;60.60
16806;BME280;8520;50.102;20.010;2022-08-07T08:34:50;99076.94;;;23.99;59.51
16806;BME280;8520;50.102;20.010;2022-08-07T08:37:40;99072.75;;;24.13;59.28
16806;BME280;8520;50.102;20.010;2022-08-07T08:40:53;99075.97;;;23.97;60.11
16806;BME280;8520;50.102;20.010;2022-08-07T08:43:48;99073.94;;;23.84;60.60
16806;BME280;8520;50.102;20.010;2022-08-07T08:46:51;99066.72;;;23.75;60.55
16806;BME280;8520;50.102;20.010;2022-08-07T08:49:48;99067.25;;;24.08;59.83
16806;BME280;8520;50.102;20.010;2022-08-07T08:52:54;99073.25;;;24.25;59.34
16806;BME280;8520;50.102;20.010;2022-08-07T08:55:47;99081.53;;;23.76;60.46
16806;BME280;8520;50.102;20.010;2022-08-07T08:58:49;99079.56;;;24.18;58.63
16806;BME280;8520;50.102;20.010;2022-08-07T09:01:43;99072.09;;;24.62;58.06
16806;BME280;8520;50.102;20.010;2022-08-07T09:04:45;99067.78;;;24.40;58.38
16806;BME280;8520;50.102;20.010;2022-08-07T09:07:42;99074.72;;;24.39;58.62
16806;BME280;8520;50.102;20.010;2022-08-07T09:10:50;99072.06;;;24.34;57.32
16806;BME280;8520;50.102;20.010;2022-08-07T09:13:48;99061.53;;;24.55;57.04
16806;BME280;8520;50.102;20.010;2022-08-07T09:16:53;99068.25;;;24.31;57.02
16806;BME280;8520;50.102;20.010;2022-08-07T09:19:52;99065.03;;;24.48;56.77
16806;BME280;8520;50.102;20.010;2022-08-07T09:22:55;99061.06;;;24.44;56.72
16806;BME280;8520;50.102;20.010;2022-08-07T09:26:15;99062.97;;;24.98;56.92
16806;BME280;8520;50.102;20.010;2022-08-07T09:29:14;99053.81;;;24.56;58.32
16806;BME280;8520;50.102;20.010;2022-08-07T09:32:32;99046.69;;;24.55;57.02
16806;BME280;8520;50.102;20.010;2022-08-07T09:35:39;99049.88;;;24.59;56.50
16806;BME280;8520;50.102;20.010;2022-08-07T09:38:58;99045.63;;;24.94;56.01
16806;BME280;8520;50.102;20.010;2022-08-07T09:42:18;99048.78;;;25.11;55.66
16806;BME280;8520;50.102;20.010;2022-08-07T09:48:53;99047.63;;;25.07;55.77
16806;BME280;8520;50.102;20.010;2022-08-07T09:52:16;99033.53;;;25.43;55.34
16806;BME280;8520;50.102;20.010;2022-08-07T09:55:25;99032.66;;;25.63;54.71
16806;BME280;8520;50.102;20.010;2022-08-07T09:58:56;99029.63;;;25.69;54.74
16806;BME280;8520;50.102;20.010;2022-08-07T10:02:07;99028.31;;;25.18;54.98
16806;BME280;8520;50.102;20.010;2022-08-07T10:05:48;99022.63;;;25.47;54.91
16806;BME280;8520;50.102;20.010;2022-08-07T10:09:31;99026.22;;;25.11;54.92
16806;BME280;8520;50.102;20.010;2022-08-07T10:12:51;99022.88;;;25.20;54.29
16806;BME280;8520;50.102;20.010;2022-08-07T10:15:53;99026.03;;;25.09;55.29
16806;BME280;8520;50.102;20.010;2022-08-07T10:19:13;99027.47;;;25.03;54.50
16806;BME280;8520;50.102;20.010;2022-08-07T10:22:17;99019.16;;;24.68;54.96
16806;BME280;8520;50.102;20.010;2022-08-07T10:25:29;99011.66;;;25.00;53.89
16806;BME280;8520;50.102;20.010;2022-08-07T10:28:54;98999.44;;;24.97;54.25
16806;BME280;8520;50.102;20.010;2022-08-07T10:32:02;99000.16;;;25.26;54.49
16806;BME280;8520;50.102;20.010;2022-08-07T10:35:19;99004.22;;;25.10;54.24
16806;BME280;8520;50.102;20.010;2022-08-07T10:38:22;99002.56;;;25.22;53.21
16806;BME280;8520;50.102;20.010;2022-08-07T10:41:39;98997.53;;;24.92;54.46
16806;BME280;8520;50.102;20.010;2022-08-07T10:44:40;99003.06;;;25.05;54.07
16806;BME280;8520;50.102;20.010;2022-08-07T10:47:39;98997.75;;;25.02;53.41
16806;BME280;8520;50.102;20.010;2022-08-07T10:50:44;98995.25;;;25.19;53.45
16806;BME280;8520;50.102;20.010;2022-08-07T10:53:42;98993.75;;;24.89;54.64
16806;BME280;8520;50.102;20.010;2022-08-07T10:56:43;98985.13;;;24.95;54.21
16806;BME280;8520;50.102;20.010;2022-08-07T10:59:46;98985.34;;;24.97;54.14
16806;BME280;8520;50.102;20.010;2022-08-07T11:02:43;98986.94;;;25.13;53.67
16806;BME280;8520;50.102;20.010;2022-08-07T11:05:44;98985.59;;;25.07;53.40
16806;BME280;8520;50.102;20.010;2022-08-07T11:08:44;98981.81;;;25.04;53.90
16806;BME280;8520;50.102;20.010;2022-08-07T11:11:42;98980.19;;;25.16;54.23
16806;BME280;8520;50.102;20.010;2022-08-07T11:14:42;98977.72;;;25.13;53.71
16806;BME280;8520;50.102;20.010;2022-08-07T11:17:49;98974.16;;;25.12;53.58
16806;BME280;8520;50.102;20.010;2022-08-07T11:20:45;98968.34;;;25.18;54.59
16806;BME280;8520;50.102;20.010;2022-08-07T11:23:44;98968.00;;;25.29;52.96
16806;BME280;8520;50.102;20.010;2022-08-07T11:26:40;98967.06;;;25.27;52.49
16806;BME280;8520;50.102;20.010;2022-08-07T11:29:41;98970.69;;;25.35;51.85
16806;BME280;8520;50.102;20.010;2022-08-07T11:32:44;98964.69;;;25.46;51.68
16806;BME280;8520;50.102;20.010;2022-08-07T11:35:44;98955.88;;;25.65;51.43
16806;BME280;8520;50.102;20.010;2022-08-07T11:38:52;98957.78;;;25.62;50.97
16806;BME280;8520;50.102;20.010;2022-08-07T11:41:56;98952.94;;;25.86;51.42
16806;BME280;8520;50.102;20.010;2022-08-07T11:44:55;98957.47;;;26.04;51.42
16806;BME280;8520;50.102;20.010;2022-08-07T11:47:56;98959.53;;;26.19;50.80
16806;BME280;8520;50.102;20.010;2022-08-07T11:51:23;98943.88;;;26.33;49.60
16806;BME280;8520;50.102;20.010;2022-08-07T11:54:41;98945.59;;;26.36;49.37
16806;BME280;8520;50.102;20.010;2022-08-07T11:57:43;98942.56;;;26.64;48.35
16806;BME280;8520;50.102;20.010;2022-08-07T12:00:55;98947.78;;;26.83;48.27
16806;BME280;8520;50.102;20.010;2022-08-07T12:04:07;98941.19;;;26.81;48.59
16806;BME280;8520;50.102;20.010;2022-08-07T12:07:00;98937.06;;;26.74;47.36
16806;BME280;8520;50.102;20.010;2022-08-07T12:10:16;98938.69;;;27.08;47.48
16806;BME280;8520;50.102;20.010;2022-08-07T12:13:14;98929.63;;;27.09;47.15
16806;BME280;8520;50.102;20.010;2022-08-07T12:16:26;98926.28;;;27.68;46.98
16806;BME280;8520;50.102;20.010;2022-08-07T12:19:23;98928.06;;;28.31;46.08
16806;BME280;8520;50.102;20.010;2022-08-07T12:22:39;98923.63;;;28.63;44.37
16806;BME280;8520;50.102;20.010;2022-08-07T12:25:48;98920.50;;;28.85;45.07
16806;BME280;8520;50.102;20.010;2022-08-07T12:29:08;98922.84;;;28.62;45.59
16806;BME280;8520;50.102;20.010;2022-08-07T12:32:08;98933.44;;;28.19;46.36
16806;BME280;8520;50.102;20.010;2022-08-07T12:35:02;98931.03;;;27.58;46.68
16806;BME280;8520;50.102;20.010;2022-08-07T12:37:54;98921.69;;;27.81;47.01
16806;BME280;8520;50.102;20.010;2022-08-07T12:41:03;98928.00;;;27.89;46.92
16806;BME280;8520;50.102;20.010;2022-08-07T12:43:57;98916.81;;;27.98;47.24
16806;BME280;8520;50.102;20.010;2022-08-07T12:47:01;98924.59;;;28.15;47.14
16806;BME280;8520;50.102;20.010;2022-08-07T12:50:01;98920.03;;;28.45;46.68
16806;BME280;8520;50.102;20.010;2022-08-07T12:53:14;98907.09;;;28.69;45.30
16806;BME280;8520;50.102;20.010;2022-08-07T12:56:14;98909.59;;;28.65;46.15
16806;BME280;8520;50.102;20.010;2022-08-07T12:59:06;98906.84;;;28.57;46.37
16806;BME280;8520;50.102;20.010;2022-08-07T13:02:22;98907.66;;;28.50;45.20
16806;BME280;8520;50.102;20.010;2022-08-07T13:05:35;98901.84;;;28.48;44.85
16806;BME280;8520;50.102;20.010;2022-08-07T13:08:50;98906.00;;;28.64;44.43
16806;BME280;8520;50.102;20.010;2022-08-07T13:11:50;98901.00;;;28.55;44.68
16806;BME280;8520;50.102;20.010;2022-08-07T13:15:00;98899.38;;;28.27;43.69
16806;BME280;8520;50.102;20.010;2022-08-07T13:17:57;98896.91;;;28.48;43.76
16806;BME280;8520;50.102;20.010;2022-08-07T13:20:53;98886.16;;;28.29;44.09
16806;BME280;8520;50.102;20.010;2022-08-07T13:23:47;98892.06;;;28.41;43.47
16806;BME280;8520;50.102;20.010;2022-08-07T13:26:54;98887.66;;;28.65;42.50
16806;BME280;8520;50.102;20.010;2022-08-07T13:29:54;98879.41;;;29.21;42.90
16806;BME280;8520;50.102;20.010;2022-08-07T13:32:48;98879.91;;;29.27;40.67
16806;BME280;8520;50.102;20.010;2022-08-07T13:35:41;98880.75;;;29.74;40.62
16806;BME280;8520;50.102;20.010;2022-08-07T13:38:59;98874.75;;;29.80;39.27
16806;BME280;8520;50.102;20.010;2022-08-07T13:41:52;98872.41;;;29.86;39.55
16806;BME280;8520;50.102;20.010;2022-08-07T13:44:41;98872.94;;;29.38;40.78
16806;BME280;8520;50.102;20.010;2022-08-07T13:47:52;98861.94;;;29.88;39.04
16806;BME280;8520;50.102;20.010;2022-08-07T13:50:57;98854.69;;;28.87;40.68
16806;BME280;8520;50.102;20.010;2022-08-07T13:53:51;98853.16;;;29.57;39.29
16806;BME280;8520;50.102;20.010;2022-08-07T13:56:52;98852.47;;;30.32;39.02
16806;BME280;8520;50.102;20.010;2022-08-07T13:59:49;98852.97;;;28.40;40.98
16806;BME280;8520;50.102;20.010;2022-08-07T14:02:43;98853.06;;;29.38;40.09
16806;BME280;8520;50.102;20.010;2022-08-07T14:05:41;98847.53;;;29.40;39.17
16806;BME280;8520;50.102;20.010;2022-08-07T14:08:38;98840.47;;;31.01;37.82
16806;BME280;8520;50.102;20.010;2022-08-07T14:11:33;98834.66;;;30.41;37.21
16806;BME280;8520;50.102;20.010;2022-08-07T14:14:50;98836.09;;;31.10;37.59
16806;BME280;8520;50.102;20.010;2022-08-07T14:17:41;98834.94;;;32.06;36.50
16806;BME280;8520;50.102;20.010;2022-08-07T14:20:55;98830.16;;;32.63;35.62
16806;BME280;8520;50.102;20.010;2022-08-07T14:24:01;98822.53;;;33.22;35.85
16806;BME280;8520;50.102;20.010;2022-08-07T14:26:53;98829.97;;;33.27;34.63
16806;BME280;8520;50.102;20.010;2022-08-07T14:29:49;98827.09;;;33.04;34.83
16806;BME280;8520;50.102;20.010;2022-08-07T14:32:59;98816.66;;;33.08;34.37
16806;BME280;8520;50.102;20.010;2022-08-07T14:35:54;98827.84;;;33.16;34.17
16806;BME280;8520;50.102;20.010;2022-08-07T14:38:45;98827.88;;;32.83;34.17
16806;BME280;8520;50.102;20.010;2022-08-07T14:41:36;98816.63;;;32.64;34.33
16806;BME280;8520;50.102;20.010;2022-08-07T14:44:51;98819.47;;;32.09;34.81
16806;BME280;8520;50.102;20.010;2022-08-07T14:48:02;98823.72;;;31.77;35.27
16806;BME280;8520;50.102;20.010;2022-08-07T14:50:56;98824.81;;;31.62;34.84
16806;BME280;8520;50.102;20.010;2022-08-07T14:53:49;98806.66;;;32.41;34.84
16806;BME280;8520;50.102;20.010;2022-08-07T14:56:59;98809.78;;;31.40;35.49
16806;BME280;8520;50.102;20.010;2022-08-07T14:59:50;98801.56;;;31.35;35.87
16806;BME280;8520;50.102;20.010;2022-08-07T15:02:53;98800.00;;;32.06;35.83
16806;BME280;8520;50.102;20.010;2022-08-07T15:05:45;98792.66;;;32.24;35.10
16806;BME280;8520;50.102;20.010;2022-08-07T15:09:01;98797.63;;;31.71;35.83
16806;BME280;8520;50.102;20.010;2022-08-07T15:12:12;98797.22;;;31.96;34.92
16806;BME280;8520;50.102;20.010;2022-08-07T15:15:32;98796.91;;;31.70;35.83
16806;BME280;8520;50.102;20.010;2022-08-07T15:18:32;98788.28;;;31.28;36.29
16806;BME280;8520;50.102;20.010;2022-08-07T15:21:25;98779.84;;;31.39;36.30
16806;BME280;8520;50.102;20.010;2022-08-07T15:24:33;98790.44;;;30.98;36.44
16806;BME280;8520;50.102;20.010;2022-08-07T15:27:43;98782.56;;;30.77;36.75
16806;BME280;8520;50.102;20.010;2022-08-07T15:31:01;98783.03;;;30.45;37.22
16806;BME280;8520;50.102;20.010;2022-08-07T15:33:56;98783.78;;;30.36;37.01
16806;BME280;8520;50.102;20.010;2022-08-07T15:36:47;98790.81;;;30.44;37.02
16806;BME280;8520;50.102;20.010;2022-08-07T15:39:55;98781.41;;;31.21;36.27
16806;BME280;8520;50.102;20.010;2022-08-07T15:42:48;98777.69;;;30.99;36.65
16806;BME280;8520;50.102;20.010;2022-08-07T15:45:40;98770.25;;;31.66;35.31
16806;BME280;8520;50.102;20.010;2022-08-07T15:48:49;98759.50;;;31.86;35.05
16806;BME280;8520;50.102;20.010;2022-08-07T15:51:59;98770.88;;;32.07;34.52
16806;BME280;8520;50.102;20.010;2022-08-07T15:54:50;98758.16;;;32.41;34.02
16806;BME280;8520;50.102;20.010;2022-08-07T15:57:42;98756.09;;;32.53;33.78
16806;BME280;8520;50.102;20.010;2022-08-07T16:00:37;98755.81;;;31.74;34.58
16806;BME280;8520;50.102;20.010;2022-08-07T16:03:31;98756.00;;;32.09;34.95